sensor_id;sensor_type;location;lat;lon;timestamp;P1;durP1;ratioP1;P2;durP2;ratioP2
72404;SDS011;60395;52.020;113.548;2023-05-29T00:00:26;10.17;;;2.60;;
72404;SDS011;60395;52.020;113.548;2023-05-29T00:03:30;5.95;;;2.28;;
72404;SDS011;60395;52.020;113.548;2023-05-29T00:06:35;4.47;;;2.10;;
72404;SDS011;60395;52.020;113.548;2023-05-29T00:09:39;3.50;;;2.88;;
72404;SDS011;60395;52.020;113.548;2023-05-29T00:15:45;3.30;;;1.92;;
72404;SDS011;60395;52.020;113.548;2023-05-29T00:18:50;4.97;;;2.40;;
72404;SDS011;60395;52.020;113.548;2023-05-29T00:21:54;4.90;;;1.90;;
72404;SDS011;60395;52.020;113.548;2023-05-29T00:28:00;3.97;;;2.00;;
72404;SDS011;60395;52.020;113.548;2023-05-29T00:31:04;6.90;;;2.30;;
72404;SDS011;60395;52.020;113.548;2023-05-29T00:34:09;3.95;;;2.00;;
72404;SDS011;60395;52.020;113.548;2023-05-29T00:37:26;2.80;;;2.10;;
72404;SDS011;60395;52.020;113.548;2023-05-29T00:40:45;5.05;;;2.40;;
72404;SDS011;60395;52.020;113.548;2023-05-29T00:43:49;5.18;;;2.45;;
72404;SDS011;60395;52.020;113.548;2023-05-29T00:46:52;2.70;;;2.30;;
72404;SDS011;60395;52.020;113.548;2023-05-29T00:49:56;7.72;;;2.40;;
72404;SDS011;60395;52.020;113.548;2023-05-29T00:53:19;5.90;;;2.30;;
72404;SDS011;60395;52.020;113.548;2023-05-29T00:56:37;3.55;;;2.35;;
72404;SDS011;60395;52.020;113.548;2023-05-29T00:59:47;6.70;;;3.70;;
72404;SDS011;60395;52.020;113.548;2023-05-29T01:02:51;9.07;;;2.85;;
72404;SDS011;60395;52.020;113.548;2023-05-29T01:05:56;6.18;;;2.88;;
72404;SDS011;60395;52.020;113.548;2023-05-29T01:09:23;5.03;;;2.47;;
72404;SDS011;60395;52.020;113.548;2023-05-29T01:19:09;5.78;;;2.63;;
72404;SDS011;60395;52.020;113.548;2023-05-29T01:22:28;4.13;;;2.38;;
72404;SDS011;60395;52.020;113.548;2023-05-29T01:29:13;3.88;;;2.60;;
72404;SDS011;60395;52.020;113.548;2023-05-29T01:32:35;9.27;;;2.85;;
72404;SDS011;60395;52.020;113.548;2023-05-29T01:35:39;8.35;;;2.75;;
72404;SDS011;60395;52.020;113.548;2023-05-29T01:38:42;4.35;;;2.13;;
72404;SDS011;60395;52.020;113.548;2023-05-29T01:41:45;4.30;;;2.38;;
72404;SDS011;60395;52.020;113.548;2023-05-29T01:45:03;3.40;;;2.42;;
72404;SDS011;60395;52.020;113.548;2023-05-29T01:48:26;7.97;;;5.03;;
72404;SDS011;60395;52.020;113.548;2023-05-29T01:51:30;3.40;;;2.38;;
72404;SDS011;60395;52.020;113.548;2023-05-29T01:54:34;5.72;;;2.40;;
72404;SDS011;60395;52.020;113.548;2023-05-29T01:57:37;3.22;;;2.20;;
72404;SDS011;60395;52.020;113.548;2023-05-29T02:00:41;7.63;;;2.67;;
72404;SDS011;60395;52.020;113.548;2023-05-29T02:03:58;10.07;;;3.70;;
72404;SDS011;60395;52.020;113.548;2023-05-29T02:07:02;5.35;;;2.50;;
72404;SDS011;60395;52.020;113.548;2023-05-29T02:10:06;6.60;;;2.43;;
72404;SDS011;60395;52.020;113.548;2023-05-29T02:13:10;5.07;;;2.47;;
72404;SDS011;60395;52.020;113.548;2023-05-29T02:16:14;5.63;;;3.90;;
72404;SDS011;60395;52.020;113.548;2023-05-29T02:19:18;8.43;;;2.30;;
72404;SDS011;60395;52.020;113.548;2023-05-29T02:22:22;4.82;;;2.72;;
72404;SDS011;60395;52.020;113.548;2023-05-29T02:25:26;9.10;;;3.40;;
72404;SDS011;60395;52.020;113.548;2023-05-29T02:28:29;3.22;;;2.30;;
72404;SDS011;60395;52.020;113.548;2023-05-29T02:31:33;6.10;;;2.30;;
72404;SDS011;60395;52.020;113.548;2023-05-29T02:34:38;3.85;;;2.15;;
72404;SDS011;60395;52.020;113.548;2023-05-29T02:37:42;7.53;;;2.73;;
72404;SDS011;60395;52.020;113.548;2023-05-29T02:40:49;18.35;;;3.50;;
72404;SDS011;60395;52.020;113.548;2023-05-29T02:43:53;4.82;;;2.35;;
72404;SDS011;60395;52.020;113.548;2023-05-29T02:46:56;3.95;;;2.30;;
72404;SDS011;60395;52.020;113.548;2023-05-29T02:50:00;6.45;;;2.40;;
72404;SDS011;60395;52.020;113.548;2023-05-29T02:53:05;6.10;;;2.30;;
72404;SDS011;60395;52.020;113.548;2023-05-29T02:56:08;3.83;;;2.10;;
72404;SDS011;60395;52.020;113.548;2023-05-29T02:59:12;5.45;;;2.80;;
72404;SDS011;60395;52.020;113.548;2023-05-29T03:02:15;7.03;;;3.20;;
72404;SDS011;60395;52.020;113.548;2023-05-29T03:05:32;4.57;;;1.77;;
72404;SDS011;60395;52.020;113.548;2023-05-29T03:08:35;5.03;;;1.90;;
72404;SDS011;60395;52.020;113.548;2023-05-29T03:12:05;3.67;;;2.33;;
72404;SDS011;60395;52.020;113.548;2023-05-29T03:15:22;5.03;;;2.38;;
72404;SDS011;60395;52.020;113.548;2023-05-29T03:18:26;12.13;;;2.22;;
72404;SDS011;60395;52.020;113.548;2023-05-29T03:21:29;4.28;;;2.28;;
72404;SDS011;60395;52.020;113.548;2023-05-29T03:24:34;4.22;;;2.10;;
72404;SDS011;60395;52.020;113.548;2023-05-29T03:27:38;3.60;;;2.00;;
72404;SDS011;60395;52.020;113.548;2023-05-29T03:30:46;3.17;;;2.10;;
72404;SDS011;60395;52.020;113.548;2023-05-29T03:33:53;3.42;;;2.20;;
72404;SDS011;60395;52.020;113.548;2023-05-29T03:37:01;5.82;;;2.35;;
72404;SDS011;60395;52.020;113.548;2023-05-29T03:40:06;4.35;;;2.30;;
72404;SDS011;60395;52.020;113.548;2023-05-29T03:43:10;3.22;;;2.08;;
72404;SDS011;60395;52.020;113.548;2023-05-29T03:46:14;4.57;;;1.70;;
72404;SDS011;60395;52.020;113.548;2023-05-29T03:49:31;2.85;;;2.10;;
72404;SDS011;60395;52.020;113.548;2023-05-29T03:52:36;2.45;;;1.98;;
72404;SDS011;60395;52.020;113.548;2023-05-29T03:55:39;5.40;;;2.00;;
72404;SDS011;60395;52.020;113.548;2023-05-29T03:59:03;4.82;;;2.03;;
72404;SDS011;60395;52.020;113.548;2023-05-29T04:02:06;7.22;;;2.47;;
72404;SDS011;60395;52.020;113.548;2023-05-29T04:05:11;6.82;;;2.28;;
72404;SDS011;60395;52.020;113.548;2023-05-29T04:08:33;4.43;;;2.00;;
72404;SDS011;60395;52.020;113.548;2023-05-29T04:11:37;2.95;;;2.00;;
72404;SDS011;60395;52.020;113.548;2023-05-29T04:14:42;4.38;;;1.88;;
72404;SDS011;60395;52.020;113.548;2023-05-29T04:17:47;2.03;;;1.80;;
72404;SDS011;60395;52.020;113.548;2023-05-29T04:23:55;4.80;;;2.17;;
72404;SDS011;60395;52.020;113.548;2023-05-29T04:26:59;3.03;;;1.85;;
72404;SDS011;60395;52.020;113.548;2023-05-29T04:30:06;2.33;;;1.60;;
72404;SDS011;60395;52.020;113.548;2023-05-29T04:33:17;2.88;;;1.92;;
72404;SDS011;60395;52.020;113.548;2023-05-29T04:36:25;2.90;;;2.05;;
72404;SDS011;60395;52.020;113.548;2023-05-29T04:39:39;4.20;;;2.20;;
72404;SDS011;60395;52.020;113.548;2023-05-29T04:42:45;2.60;;;2.03;;
72404;SDS011;60395;52.020;113.548;2023-05-29T04:45:50;7.18;;;1.95;;
72404;SDS011;60395;52.020;113.548;2023-05-29T04:48:53;4.10;;;2.65;;
72404;SDS011;60395;52.020;113.548;2023-05-29T04:51:57;4.82;;;2.20;;
72404;SDS011;60395;52.020;113.548;2023-05-29T04:55:04;6.95;;;2.25;;
72404;SDS011;60395;52.020;113.548;2023-05-29T04:58:08;2.70;;;2.03;;
72404;SDS011;60395;52.020;113.548;2023-05-29T05:01:15;8.82;;;2.35;;
72404;SDS011;60395;52.020;113.548;2023-05-29T05:04:20;3.90;;;2.20;;
72404;SDS011;60395;52.020;113.548;2023-05-29T05:07:23;5.22;;;2.30;;
72404;SDS011;60395;52.020;113.548;2023-05-29T05:10:27;3.80;;;1.95;;
72404;SDS011;60395;52.020;113.548;2023-05-29T05:13:31;7.53;;;2.17;;
72404;SDS011;60395;52.020;113.548;2023-05-29T05:16:35;5.00;;;1.90;;
72404;SDS011;60395;52.020;113.548;2023-05-29T05:19:38;2.80;;;2.00;;
72404;SDS011;60395;52.020;113.548;2023-05-29T05:22:42;5.43;;;2.37;;
72404;SDS011;60395;52.020;113.548;2023-05-29T05:25:46;5.85;;;2.00;;
72404;SDS011;60395;52.020;113.548;2023-05-29T05:28:50;5.55;;;1.80;;
72404;SDS011;60395;52.020;113.548;2023-05-29T05:31:55;4.07;;;2.05;;
72404;SDS011;60395;52.020;113.548;2023-05-29T05:35:13;4.45;;;2.20;;
72404;SDS011;60395;52.020;113.548;2023-05-29T05:38:17;9.65;;;3.30;;
72404;SDS011;60395;52.020;113.548;2023-05-29T05:41:21;4.80;;;1.80;;
72404;SDS011;60395;52.020;113.548;2023-05-29T05:44:26;5.70;;;2.10;;
72404;SDS011;60395;52.020;113.548;2023-05-29T05:47:41;2.58;;;1.90;;
72404;SDS011;60395;52.020;113.548;2023-05-29T05:50:45;11.98;;;2.10;;
72404;SDS011;60395;52.020;113.548;2023-05-29T05:53:49;5.38;;;1.85;;
72404;SDS011;60395;52.020;113.548;2023-05-29T05:56:53;5.53;;;2.00;;
72404;SDS011;60395;52.020;113.548;2023-05-29T05:59:58;6.30;;;3.80;;
72404;SDS011;60395;52.020;113.548;2023-05-29T06:03:04;5.85;;;2.03;;
72404;SDS011;60395;52.020;113.548;2023-05-29T06:06:26;5.50;;;2.10;;
72404;SDS011;60395;52.020;113.548;2023-05-29T06:09:30;9.07;;;2.33;;
72404;SDS011;60395;52.020;113.548;2023-05-29T06:12:50;7.90;;;2.00;;
72404;SDS011;60395;52.020;113.548;2023-05-29T06:16:00;2.90;;;1.63;;
72404;SDS011;60395;52.020;113.548;2023-05-29T06:19:04;3.05;;;2.05;;
72404;SDS011;60395;52.020;113.548;2023-05-29T06:22:19;5.75;;;1.85;;
72404;SDS011;60395;52.020;113.548;2023-05-29T06:28:35;3.08;;;1.60;;
72404;SDS011;60395;52.020;113.548;2023-05-29T06:31:39;4.55;;;1.90;;
72404;SDS011;60395;52.020;113.548;2023-05-29T06:34:42;3.60;;;1.60;;
72404;SDS011;60395;52.020;113.548;2023-05-29T06:38:03;4.68;;;1.75;;
72404;SDS011;60395;52.020;113.548;2023-05-29T06:41:06;5.57;;;3.05;;
72404;SDS011;60395;52.020;113.548;2023-05-29T06:44:24;5.47;;;2.33;;
72404;SDS011;60395;52.020;113.548;2023-05-29T06:50:32;2.42;;;1.60;;
72404;SDS011;60395;52.020;113.548;2023-05-29T06:53:54;2.50;;;1.63;;
72404;SDS011;60395;52.020;113.548;2023-05-29T06:57:01;2.80;;;1.60;;
72404;SDS011;60395;52.020;113.548;2023-05-29T07:00:12;6.53;;;2.15;;
72404;SDS011;60395;52.020;113.548;2023-05-29T07:03:25;4.93;;;2.22;;
72404;SDS011;60395;52.020;113.548;2023-05-29T07:09:33;7.45;;;1.90;;
72404;SDS011;60395;52.020;113.548;2023-05-29T07:12:37;4.97;;;2.10;;
72404;SDS011;60395;52.020;113.548;2023-05-29T07:15:40;2.83;;;1.75;;
72404;SDS011;60395;52.020;113.548;2023-05-29T07:21:48;4.93;;;2.00;;
72404;SDS011;60395;52.020;113.548;2023-05-29T07:24:54;3.75;;;1.90;;
72404;SDS011;60395;52.020;113.548;2023-05-29T07:27:58;7.20;;;1.80;;
72404;SDS011;60395;52.020;113.548;2023-05-29T07:31:15;3.72;;;1.98;;
72404;SDS011;60395;52.020;113.548;2023-05-29T07:34:19;3.95;;;2.17;;
72404;SDS011;60395;52.020;113.548;2023-05-29T07:37:24;3.92;;;1.98;;
72404;SDS011;60395;52.020;113.548;2023-05-29T07:40:27;5.88;;;1.80;;
72404;SDS011;60395;52.020;113.548;2023-05-29T07:43:33;5.35;;;1.83;;
72404;SDS011;60395;52.020;113.548;2023-05-29T07:46:42;6.07;;;1.77;;
72404;SDS011;60395;52.020;113.548;2023-05-29T07:50:03;5.68;;;2.10;;
72404;SDS011;60395;52.020;113.548;2023-05-29T07:53:09;2.33;;;1.88;;
72404;SDS011;60395;52.020;113.548;2023-05-29T07:59:18;6.93;;;2.00;;
72404;SDS011;60395;52.020;113.548;2023-05-29T08:02:21;4.87;;;1.97;;
72404;SDS011;60395;52.020;113.548;2023-05-29T08:05:39;5.43;;;1.77;;
72404;SDS011;60395;52.020;113.548;2023-05-29T08:08:46;7.55;;;2.10;;
72404;SDS011;60395;52.020;113.548;2023-05-29T08:11:50;6.55;;;2.00;;
72404;SDS011;60395;52.020;113.548;2023-05-29T08:14:54;4.18;;;2.20;;
72404;SDS011;60395;52.020;113.548;2023-05-29T08:17:57;5.95;;;2.00;;
72404;SDS011;60395;52.020;113.548;2023-05-29T08:21:01;5.00;;;1.92;;
72404;SDS011;60395;52.020;113.548;2023-05-29T08:24:04;7.25;;;2.95;;
72404;SDS011;60395;52.020;113.548;2023-05-29T08:27:08;4.00;;;2.10;;
72404;SDS011;60395;52.020;113.548;2023-05-29T08:30:12;7.80;;;2.00;;
72404;SDS011;60395;52.020;113.548;2023-05-29T08:33:15;3.47;;;1.95;;
72404;SDS011;60395;52.020;113.548;2023-05-29T08:36:19;3.83;;;2.33;;
72404;SDS011;60395;52.020;113.548;2023-05-29T08:39:25;8.15;;;2.42;;
72404;SDS011;60395;52.020;113.548;2023-05-29T08:42:29;6.27;;;1.80;;
72404;SDS011;60395;52.020;113.548;2023-05-29T08:45:36;4.05;;;1.45;;
72404;SDS011;60395;52.020;113.548;2023-05-29T08:48:49;3.88;;;1.70;;
72404;SDS011;60395;52.020;113.548;2023-05-29T08:51:56;5.35;;;2.20;;
72404;SDS011;60395;52.020;113.548;2023-05-29T08:55:05;26.02;;;2.30;;
72404;SDS011;60395;52.020;113.548;2023-05-29T08:58:09;6.85;;;3.58;;
72404;SDS011;60395;52.020;113.548;2023-05-29T09:01:14;5.32;;;2.30;;
72404;SDS011;60395;52.020;113.548;2023-05-29T09:04:18;4.05;;;2.05;;
72404;SDS011;60395;52.020;113.548;2023-05-29T09:07:22;5.40;;;1.98;;
72404;SDS011;60395;52.020;113.548;2023-05-29T09:10:28;3.22;;;2.00;;
72404;SDS011;60395;52.020;113.548;2023-05-29T09:13:32;6.00;;;1.90;;
72404;SDS011;60395;52.020;113.548;2023-05-29T09:16:40;7.03;;;2.40;;
72404;SDS011;60395;52.020;113.548;2023-05-29T09:19:45;6.75;;;2.30;;
72404;SDS011;60395;52.020;113.548;2023-05-29T09:22:58;7.30;;;2.30;;
72404;SDS011;60395;52.020;113.548;2023-05-29T09:26:06;7.55;;;2.25;;
72404;SDS011;60395;52.020;113.548;2023-05-29T09:29:09;10.20;;;2.40;;
72404;SDS011;60395;52.020;113.548;2023-05-29T09:32:15;11.00;;;2.17;;
72404;SDS011;60395;52.020;113.548;2023-05-29T09:35:19;6.85;;;2.50;;
72404;SDS011;60395;52.020;113.548;2023-05-29T09:38:23;5.77;;;2.13;;
72404;SDS011;60395;52.020;113.548;2023-05-29T09:41:46;5.88;;;2.35;;
72404;SDS011;60395;52.020;113.548;2023-05-29T09:44:52;5.63;;;2.03;;
72404;SDS011;60395;52.020;113.548;2023-05-29T09:47:55;16.50;;;2.20;;
72404;SDS011;60395;52.020;113.548;2023-05-29T09:51:00;8.57;;;2.03;;
72404;SDS011;60395;52.020;113.548;2023-05-29T09:54:15;12.63;;;2.30;;
72404;SDS011;60395;52.020;113.548;2023-05-29T09:57:19;4.68;;;1.80;;
72404;SDS011;60395;52.020;113.548;2023-05-29T10:00:25;3.00;;;1.90;;
72404;SDS011;60395;52.020;113.548;2023-05-29T10:03:29;6.50;;;2.08;;
72404;SDS011;60395;52.020;113.548;2023-05-29T10:06:37;3.17;;;1.70;;
72404;SDS011;60395;52.020;113.548;2023-05-29T10:09:44;3.97;;;2.50;;
72404;SDS011;60395;52.020;113.548;2023-05-29T10:12:50;3.03;;;2.10;;
72404;SDS011;60395;52.020;113.548;2023-05-29T10:15:54;3.95;;;2.10;;
72404;SDS011;60395;52.020;113.548;2023-05-29T10:18:59;2.80;;;1.90;;
72404;SDS011;60395;52.020;113.548;2023-05-29T10:22:04;5.25;;;1.80;;
72404;SDS011;60395;52.020;113.548;2023-05-29T10:25:09;5.32;;;2.00;;
72404;SDS011;60395;52.020;113.548;2023-05-29T10:28:14;5.85;;;2.33;;
72404;SDS011;60395;52.020;113.548;2023-05-29T10:31:26;6.38;;;2.10;;
72404;SDS011;60395;52.020;113.548;2023-05-29T10:37:57;4.38;;;2.25;;
72404;SDS011;60395;52.020;113.548;2023-05-29T10:47:34;4.23;;;2.00;;
72404;SDS011;60395;52.020;113.548;2023-05-29T10:53:44;7.10;;;1.90;;
72404;SDS011;60395;52.020;113.548;2023-05-29T10:56:56;5.55;;;2.25;;
72404;SDS011;60395;52.020;113.548;2023-05-29T11:00:04;7.40;;;2.15;;
72404;SDS011;60395;52.020;113.548;2023-05-29T11:03:17;8.95;;;2.75;;
72404;SDS011;60395;52.020;113.548;2023-05-29T11:06:26;5.18;;;2.53;;
72404;SDS011;60395;52.020;113.548;2023-05-29T11:09:30;3.50;;;2.22;;
72404;SDS011;60395;52.020;113.548;2023-05-29T11:12:57;6.60;;;2.40;;
72404;SDS011;60395;52.020;113.548;2023-05-29T11:19:31;9.45;;;2.90;;
72404;SDS011;60395;52.020;113.548;2023-05-29T11:26:03;8.48;;;2.60;;
72404;SDS011;60395;52.020;113.548;2023-05-29T11:29:07;4.72;;;2.53;;
72404;SDS011;60395;52.020;113.548;2023-05-29T11:32:14;7.95;;;2.08;;
72404;SDS011;60395;52.020;113.548;2023-05-29T11:35:21;5.13;;;2.28;;
72404;SDS011;60395;52.020;113.548;2023-05-29T11:38:26;5.07;;;2.55;;
72404;SDS011;60395;52.020;113.548;2023-05-29T11:41:30;9.90;;;2.83;;
72404;SDS011;60395;52.020;113.548;2023-05-29T11:44:33;15.67;;;2.97;;
72404;SDS011;60395;52.020;113.548;2023-05-29T11:47:54;11.17;;;3.47;;
72404;SDS011;60395;52.020;113.548;2023-05-29T11:51:02;9.57;;;3.50;;
72404;SDS011;60395;52.020;113.548;2023-05-29T11:54:09;12.35;;;3.30;;
72404;SDS011;60395;52.020;113.548;2023-05-29T11:57:18;12.85;;;3.50;;
72404;SDS011;60395;52.020;113.548;2023-05-29T12:00:23;14.00;;;5.75;;
72404;SDS011;60395;52.020;113.548;2023-05-29T12:03:27;12.20;;;4.67;;
72404;SDS011;60395;52.020;113.548;2023-05-29T12:06:31;10.45;;;3.40;;
72404;SDS011;60395;52.020;113.548;2023-05-29T12:09:36;13.70;;;3.83;;
72404;SDS011;60395;52.020;113.548;2023-05-29T12:12:40;13.45;;;3.80;;
72404;SDS011;60395;52.020;113.548;2023-05-29T12:15:44;12.60;;;4.20;;
72404;SDS011;60395;52.020;113.548;2023-05-29T12:18:48;14.63;;;5.77;;
72404;SDS011;60395;52.020;113.548;2023-05-29T12:21:51;21.60;;;8.90;;
72404;SDS011;60395;52.020;113.548;2023-05-29T12:24:54;17.50;;;5.80;;
72404;SDS011;60395;52.020;113.548;2023-05-29T12:27:59;20.17;;;6.85;;
72404;SDS011;60395;52.020;113.548;2023-05-29T12:31:02;16.85;;;5.95;;
72404;SDS011;60395;52.020;113.548;2023-05-29T12:34:10;13.05;;;4.72;;
72404;SDS011;60395;52.020;113.548;2023-05-29T12:37:20;10.50;;;4.05;;
72404;SDS011;60395;52.020;113.548;2023-05-29T12:40:26;9.90;;;4.07;;
72404;SDS011;60395;52.020;113.548;2023-05-29T12:43:31;8.90;;;4.05;;
72404;SDS011;60395;52.020;113.548;2023-05-29T12:46:35;11.73;;;3.33;;
72404;SDS011;60395;52.020;113.548;2023-05-29T12:49:48;8.52;;;3.70;;
72404;SDS011;60395;52.020;113.548;2023-05-29T12:53:01;11.80;;;5.07;;
72404;SDS011;60395;52.020;113.548;2023-05-29T12:56:07;9.82;;;4.80;;
72404;SDS011;60395;52.020;113.548;2023-05-29T12:59:10;10.65;;;4.20;;
72404;SDS011;60395;52.020;113.548;2023-05-29T13:02:14;6.90;;;3.33;;
72404;SDS011;60395;52.020;113.548;2023-05-29T13:05:19;8.02;;;4.30;;
72404;SDS011;60395;52.020;113.548;2023-05-29T13:08:25;7.13;;;3.63;;
72404;SDS011;60395;52.020;113.548;2023-05-29T13:11:29;8.60;;;3.83;;
72404;SDS011;60395;52.020;113.548;2023-05-29T13:14:32;11.48;;;3.65;;
72404;SDS011;60395;52.020;113.548;2023-05-29T13:17:36;9.27;;;3.75;;
72404;SDS011;60395;52.020;113.548;2023-05-29T13:20:40;14.20;;;4.57;;
72404;SDS011;60395;52.020;113.548;2023-05-29T13:23:43;10.40;;;3.50;;
72404;SDS011;60395;52.020;113.548;2023-05-29T13:26:47;7.20;;;3.40;;
72404;SDS011;60395;52.020;113.548;2023-05-29T13:29:53;8.90;;;3.17;;
72404;SDS011;60395;52.020;113.548;2023-05-29T13:32:57;7.43;;;3.80;;
72404;SDS011;60395;52.020;113.548;2023-05-29T13:36:01;8.02;;;3.30;;
72404;SDS011;60395;52.020;113.548;2023-05-29T13:39:05;9.17;;;3.77;;
72404;SDS011;60395;52.020;113.548;2023-05-29T13:42:09;9.32;;;3.40;;
72404;SDS011;60395;52.020;113.548;2023-05-29T13:45:12;5.35;;;3.20;;
72404;SDS011;60395;52.020;113.548;2023-05-29T13:48:17;13.07;;;3.55;;
72404;SDS011;60395;52.020;113.548;2023-05-29T13:51:21;10.45;;;3.70;;
72404;SDS011;60395;52.020;113.548;2023-05-29T13:54:24;12.98;;;4.10;;
72404;SDS011;60395;52.020;113.548;2023-05-29T13:57:31;14.32;;;4.15;;
72404;SDS011;60395;52.020;113.548;2023-05-29T14:00:34;20.60;;;4.80;;
72404;SDS011;60395;52.020;113.548;2023-05-29T14:03:38;10.25;;;4.78;;
72404;SDS011;60395;52.020;113.548;2023-05-29T14:06:44;15.30;;;4.40;;
72404;SDS011;60395;52.020;113.548;2023-05-29T14:09:48;15.52;;;4.30;;
72404;SDS011;60395;52.020;113.548;2023-05-29T14:12:51;18.50;;;4.53;;
72404;SDS011;60395;52.020;113.548;2023-05-29T14:15:55;12.13;;;4.30;;
72404;SDS011;60395;52.020;113.548;2023-05-29T14:19:00;14.93;;;4.47;;
72404;SDS011;60395;52.020;113.548;2023-05-29T14:22:03;12.73;;;4.28;;
72404;SDS011;60395;52.020;113.548;2023-05-29T14:25:07;18.73;;;4.43;;
72404;SDS011;60395;52.020;113.548;2023-05-29T14:28:12;10.93;;;3.85;;
72404;SDS011;60395;52.020;113.548;2023-05-29T14:31:15;10.13;;;3.95;;
72404;SDS011;60395;52.020;113.548;2023-05-29T14:34:19;15.23;;;3.55;;
72404;SDS011;60395;52.020;113.548;2023-05-29T14:37:22;9.38;;;3.92;;
72404;SDS011;60395;52.020;113.548;2023-05-29T14:40:26;7.57;;;3.67;;
72404;SDS011;60395;52.020;113.548;2023-05-29T14:43:29;11.90;;;3.50;;
72404;SDS011;60395;52.020;113.548;2023-05-29T14:46:33;12.48;;;3.50;;
72404;SDS011;60395;52.020;113.548;2023-05-29T14:49:37;9.90;;;3.67;;
72404;SDS011;60395;52.020;113.548;2023-05-29T14:52:41;13.50;;;3.88;;
72404;SDS011;60395;52.020;113.548;2023-05-29T14:55:44;11.73;;;3.65;;
72404;SDS011;60395;52.020;113.548;2023-05-29T14:58:48;9.38;;;4.20;;
72404;SDS011;60395;52.020;113.548;2023-05-29T15:01:52;9.90;;;3.60;;
72404;SDS011;60395;52.020;113.548;2023-05-29T15:07:59;10.50;;;3.08;;
72404;SDS011;60395;52.020;113.548;2023-05-29T15:11:03;11.82;;;3.22;;
72404;SDS011;60395;52.020;113.548;2023-05-29T15:14:06;10.48;;;3.45;;
72404;SDS011;60395;52.020;113.548;2023-05-29T15:17:10;8.00;;;3.20;;
72404;SDS011;60395;52.020;113.548;2023-05-29T15:20:13;11.43;;;3.58;;
72404;SDS011;60395;52.020;113.548;2023-05-29T15:23:16;5.75;;;2.60;;
72404;SDS011;60395;52.020;113.548;2023-05-29T15:29:24;7.55;;;2.90;;
72404;SDS011;60395;52.020;113.548;2023-05-29T15:32:30;9.60;;;2.78;;
72404;SDS011;60395;52.020;113.548;2023-05-29T15:35:34;6.32;;;3.25;;
72404;SDS011;60395;52.020;113.548;2023-05-29T15:38:39;6.70;;;2.28;;
72404;SDS011;60395;52.020;113.548;2023-05-29T15:41:42;3.85;;;2.20;;
72404;SDS011;60395;52.020;113.548;2023-05-29T15:44:45;5.35;;;2.42;;
72404;SDS011;60395;52.020;113.548;2023-05-29T15:47:49;6.00;;;2.50;;
72404;SDS011;60395;52.020;113.548;2023-05-29T15:50:52;3.42;;;2.53;;
72404;SDS011;60395;52.020;113.548;2023-05-29T15:53:56;4.05;;;2.30;;
72404;SDS011;60395;52.020;113.548;2023-05-29T15:56:59;6.25;;;2.67;;
72404;SDS011;60395;52.020;113.548;2023-05-29T16:00:05;4.18;;;2.35;;
72404;SDS011;60395;52.020;113.548;2023-05-29T16:03:10;3.67;;;2.40;;
72404;SDS011;60395;52.020;113.548;2023-05-29T16:06:14;10.38;;;2.78;;
72404;SDS011;60395;52.020;113.548;2023-05-29T16:09:18;3.90;;;2.35;;
72404;SDS011;60395;52.020;113.548;2023-05-29T16:12:21;4.65;;;2.42;;
72404;SDS011;60395;52.020;113.548;2023-05-29T16:15:25;3.58;;;2.10;;
72404;SDS011;60395;52.020;113.548;2023-05-29T16:18:29;4.28;;;2.17;;
72404;SDS011;60395;52.020;113.548;2023-05-29T16:21:32;5.18;;;2.20;;
72404;SDS011;60395;52.020;113.548;2023-05-29T16:24:39;4.20;;;2.45;;
72404;SDS011;60395;52.020;113.548;2023-05-29T16:27:43;5.45;;;2.45;;
72404;SDS011;60395;52.020;113.548;2023-05-29T16:30:47;5.60;;;2.43;;
72404;SDS011;60395;52.020;113.548;2023-05-29T16:33:52;3.72;;;2.28;;
72404;SDS011;60395;52.020;113.548;2023-05-29T16:36:55;5.95;;;2.10;;
72404;SDS011;60395;52.020;113.548;2023-05-29T16:39:59;3.45;;;2.20;;
72404;SDS011;60395;52.020;113.548;2023-05-29T16:43:03;3.75;;;2.00;;
72404;SDS011;60395;52.020;113.548;2023-05-29T16:46:07;4.80;;;2.38;;
72404;SDS011;60395;52.020;113.548;2023-05-29T16:49:10;4.32;;;2.10;;
72404;SDS011;60395;52.020;113.548;2023-05-29T16:52:14;5.28;;;2.60;;
72404;SDS011;60395;52.020;113.548;2023-05-29T16:55:22;5.75;;;2.47;;
72404;SDS011;60395;52.020;113.548;2023-05-29T16:58:27;8.15;;;3.00;;
72404;SDS011;60395;52.020;113.548;2023-05-29T17:01:30;8.60;;;2.70;;
72404;SDS011;60395;52.020;113.548;2023-05-29T17:04:34;4.70;;;1.90;;
72404;SDS011;60395;52.020;113.548;2023-05-29T17:07:38;5.13;;;2.20;;
72404;SDS011;60395;52.020;113.548;2023-05-29T17:10:42;5.82;;;2.20;;
72404;SDS011;60395;52.020;113.548;2023-05-29T17:13:48;5.22;;;2.50;;
72404;SDS011;60395;52.020;113.548;2023-05-29T17:16:52;2.80;;;2.00;;
72404;SDS011;60395;52.020;113.548;2023-05-29T17:19:55;6.93;;;2.20;;
72404;SDS011;60395;52.020;113.548;2023-05-29T17:22:59;4.10;;;1.83;;
72404;SDS011;60395;52.020;113.548;2023-05-29T17:26:02;3.50;;;2.20;;
72404;SDS011;60395;52.020;113.548;2023-05-29T17:29:06;4.25;;;2.08;;
72404;SDS011;60395;52.020;113.548;2023-05-29T17:32:09;3.92;;;2.00;;
72404;SDS011;60395;52.020;113.548;2023-05-29T17:35:13;2.72;;;1.80;;
72404;SDS011;60395;52.020;113.548;2023-05-29T17:38:16;4.20;;;2.00;;
72404;SDS011;60395;52.020;113.548;2023-05-29T17:41:19;4.70;;;2.00;;
72404;SDS011;60395;52.020;113.548;2023-05-29T17:44:23;3.60;;;2.20;;
72404;SDS011;60395;52.020;113.548;2023-05-29T17:50:34;6.20;;;2.10;;
72404;SDS011;60395;52.020;113.548;2023-05-29T17:53:39;6.50;;;2.40;;
72404;SDS011;60395;52.020;113.548;2023-05-29T17:56:43;4.70;;;2.10;;
72404;SDS011;60395;52.020;113.548;2023-05-29T17:59:47;11.40;;;2.58;;
72404;SDS011;60395;52.020;113.548;2023-05-29T18:02:51;4.32;;;2.50;;
72404;SDS011;60395;52.020;113.548;2023-05-29T18:05:55;4.25;;;2.55;;
72404;SDS011;60395;52.020;113.548;2023-05-29T18:08:59;3.17;;;2.07;;
72404;SDS011;60395;52.020;113.548;2023-05-29T18:12:03;4.63;;;2.20;;
72404;SDS011;60395;52.020;113.548;2023-05-29T18:15:08;4.32;;;2.17;;
72404;SDS011;60395;52.020;113.548;2023-05-29T18:18:16;3.95;;;2.30;;
72404;SDS011;60395;52.020;113.548;2023-05-29T18:21:27;3.55;;;1.88;;
72404;SDS011;60395;52.020;113.548;2023-05-29T18:24:33;2.88;;;1.90;;
72404;SDS011;60395;52.020;113.548;2023-05-29T18:27:37;4.63;;;2.78;;
72404;SDS011;60395;52.020;113.548;2023-05-29T18:30:42;4.00;;;2.50;;
72404;SDS011;60395;52.020;113.548;2023-05-29T18:34:00;4.07;;;2.33;;
72404;SDS011;60395;52.020;113.548;2023-05-29T18:37:05;4.45;;;2.45;;
72404;SDS011;60395;52.020;113.548;2023-05-29T18:40:09;4.18;;;2.00;;
72404;SDS011;60395;52.020;113.548;2023-05-29T18:43:13;4.38;;;2.13;;
72404;SDS011;60395;52.020;113.548;2023-05-29T18:46:18;4.70;;;2.00;;
72404;SDS011;60395;52.020;113.548;2023-05-29T18:49:22;3.85;;;2.28;;
72404;SDS011;60395;52.020;113.548;2023-05-29T18:52:28;4.63;;;2.25;;
72404;SDS011;60395;52.020;113.548;2023-05-29T18:55:31;4.10;;;2.30;;
72404;SDS011;60395;52.020;113.548;2023-05-29T18:58:35;5.80;;;2.20;;
72404;SDS011;60395;52.020;113.548;2023-05-29T19:01:39;7.50;;;2.45;;
72404;SDS011;60395;52.020;113.548;2023-05-29T19:04:43;5.45;;;2.42;;
72404;SDS011;60395;52.020;113.548;2023-05-29T19:07:47;5.28;;;2.58;;